createdAt,value
2019-02-18T00:00:09.333Z,3.53
2019-02-18T00:01:09.234Z,3.54
2019-02-18T00:02:10.666Z,3.56
2019-02-18T00:03:09.061Z,3.57
2019-02-18T00:04:09.023Z,3.60
2019-02-18T00:05:08.920Z,3.54
2019-02-18T00:06:08.854Z,3.57
2019-02-18T00:07:14.446Z,3.60
2019-02-18T00:08:08.629Z,3.60
2019-02-18T00:09:08.654Z,3.57
2019-02-18T00:10:08.468Z,3.56
2019-02-18T00:11:08.368Z,3.53
2019-02-18T00:12:08.360Z,3.53
2019-02-18T00:13:08.197Z,3.56
2019-02-18T00:14:08.170Z,3.49
2019-02-18T00:15:08.053Z,3.46
2019-02-18T00:16:07.984Z,3.42
2019-02-18T00:17:07.854Z,3.39
2019-02-18T00:18:07.761Z,3.37
2019-02-18T00:19:07.696Z,3.42
2019-02-18T00:20:07.589Z,3.52
2019-02-18T00:21:07.512Z,3.46
2019-02-18T00:22:07.510Z,3.49
2019-02-18T00:23:07.329Z,3.41
2019-02-18T00:24:07.326Z,3.33
2019-02-18T00:25:07.155Z,3.35
2019-02-18T00:26:07.177Z,3.33
2019-02-18T00:27:06.979Z,3.31
2019-02-18T00:28:06.895Z,3.33
2019-02-18T00:29:06.839Z,3.22
2019-02-18T00:30:06.787Z,3.26
2019-02-18T00:31:06.643Z,3.22
2019-02-18T00:32:06.659Z,3.26
2019-02-18T00:33:06.454Z,3.16
2019-02-18T00:34:06.379Z,3.15
2019-02-18T00:35:06.381Z,3.15
2019-02-18T00:36:06.211Z,3.10
2019-02-18T00:37:06.114Z,3.10
2019-02-18T00:38:06.084Z,3.07
2019-02-18T00:39:05.938Z,3.13
2019-02-18T00:40:05.893Z,3.13
2019-02-18T00:41:05.777Z,3.08
2019-02-18T00:42:12.668Z,3.04
2019-02-18T00:43:05.588Z,3.08
2019-02-18T00:44:05.501Z,3.02
2019-02-18T00:45:05.519Z,3.04
2019-02-18T00:46:05.342Z,3.07
2019-02-18T00:47:05.242Z,3.05
2019-02-18T00:48:07.992Z,2.87
2019-02-18T00:49:05.065Z,2.97
2019-02-18T00:50:05.059Z,2.87
2019-02-18T00:51:04.976Z,2.92
2019-02-18T00:52:04.805Z,2.95
2019-02-18T00:53:04.721Z,2.97
2019-02-18T00:54:04.660Z,2.86
2019-02-18T00:55:04.543Z,2.89
2019-02-18T00:56:04.504Z,2.87
2019-02-18T00:57:04.373Z,2.81
2019-02-18T00:58:04.287Z,2.76
2019-02-18T00:59:05.308Z,2.77
2019-02-18T01:00:04.110Z,2.66
2019-02-18T01:01:04.025Z,2.69
2019-02-18T01:02:04.027Z,2.66
2019-02-18T01:03:03.850Z,2.74
2019-02-18T01:04:03.761Z,2.76
2019-02-18T01:05:04.734Z,2.79
2019-02-18T01:06:03.587Z,2.77
2019-02-18T01:07:03.516Z,2.66
2019-02-18T01:08:03.526Z,2.66
2019-02-18T01:09:03.329Z,2.66
2019-02-18T01:10:03.244Z,2.73
2019-02-18T01:11:05.193Z,2.65
2019-02-18T01:12:03.079Z,2.80
2019-02-18T01:13:02.980Z,2.68
2019-02-18T01:14:02.956Z,2.68
2019-02-18T01:15:02.805Z,2.68
2019-02-18T01:16:02.715Z,2.68
2019-02-18T01:17:02.714Z,2.69
2019-02-18T01:18:02.538Z,2.59
2019-02-18T01:19:02.455Z,2.53
2019-02-18T01:20:02.387Z,2.65
2019-02-18T01:21:02.283Z,2.53
2019-02-18T01:22:02.207Z,2.51
2019-02-18T01:23:02.204Z,2.51
2019-02-18T01:24:02.017Z,2.55
2019-02-18T01:25:02.009Z,2.58
2019-02-18T01:26:01.847Z,2.47
2019-02-18T01:27:01.772Z,2.51
2019-02-18T01:28:01.720Z,2.50
2019-02-18T01:29:01.580Z,2.45
2019-02-18T01:30:01.493Z,2.45
2019-02-18T01:31:01.433Z,2.45
2019-02-18T01:32:01.357Z,2.44
2019-02-18T01:33:01.237Z,2.38
2019-02-18T01:34:02.170Z,2.33
2019-02-18T01:35:01.057Z,2.30
2019-02-18T01:36:01.060Z,2.36
2019-02-18T01:37:00.888Z,2.41
2019-02-18T01:38:00.898Z,2.26
2019-02-18T01:39:00.711Z,2.26
2019-02-18T01:40:00.727Z,2.29
2019-02-18T01:41:01.559Z,2.30
2019-02-18T01:42:00.484Z,2.36
2019-02-18T01:43:00.406Z,2.36
2019-02-18T01:44:00.291Z,2.41
2019-02-18T01:45:00.322Z,2.29
2019-02-18T01:46:00.204Z,2.36
2019-02-18T01:47:00.012Z,2.41
2019-02-18T01:48:00.045Z,2.36
2019-02-18T01:48:59.835Z,2.40
2019-02-18T01:49:59.821Z,2.41
2019-02-18T01:50:59.661Z,2.25
2019-02-18T01:51:59.637Z,2.30
2019-02-18T01:52:59.500Z,2.23
2019-02-18T01:53:59.398Z,2.26
2019-02-18T01:54:59.347Z,2.27
2019-02-18T01:55:59.221Z,2.20
2019-02-18T01:56:59.138Z,2.25
2019-02-18T01:57:59.093Z,2.14
2019-02-18T01:58:58.960Z,2.09
2019-02-18T01:59:58.882Z,2.11
2019-02-18T02:00:58.879Z,2.25
2019-02-18T02:01:58.700Z,2.26
2019-02-18T02:02:58.624Z,2.18
2019-02-18T02:03:58.592Z,2.11
2019-02-18T02:04:58.440Z,2.09
2019-02-18T02:05:58.348Z,2.11
2019-02-18T02:06:58.304Z,2.12
2019-02-18T02:07:58.195Z,2.01
2019-02-18T02:08:58.119Z,2.08
2019-02-18T02:09:58.000Z,2.11
2019-02-18T02:10:58.028Z,2.05
2019-02-18T02:11:57.819Z,2.04
2019-02-18T02:12:57.734Z,2.00
2019-02-18T02:14:00.053Z,2.02
2019-02-18T02:14:57.559Z,2.04
2019-02-18T02:15:57.473Z,2.00
2019-02-18T02:16:57.450Z,2.01
2019-02-18T02:17:57.299Z,2.00
2019-02-18T02:18:57.223Z,2.05
2019-02-18T02:19:57.163Z,1.95
2019-02-18T02:20:57.031Z,2.00
2019-02-18T02:21:56.946Z,1.95
2019-02-18T02:22:56.877Z,1.95
2019-02-18T02:23:56.785Z,2.00
2019-02-18T02:24:56.682Z,1.88
2019-02-18T02:25:56.694Z,1.86
2019-02-18T02:26:56.509Z,1.93
2019-02-18T02:27:57.480Z,1.86
2019-02-18T02:28:56.442Z,1.90
2019-02-18T02:29:56.249Z,1.83
2019-02-18T02:30:56.156Z,1.90
2019-02-18T02:31:56.130Z,1.88
2019-02-18T02:32:55.981Z,1.86
2019-02-18T02:33:55.916Z,1.85
2019-02-18T02:34:55.833Z,1.89
2019-02-18T02:35:55.722Z,1.88
2019-02-18T02:36:56.671Z,1.85
2019-02-18T02:38:07.086Z,1.83
2019-02-18T02:38:55.483Z,1.85
2019-02-18T02:39:55.370Z,1.85
2019-02-18T02:40:55.365Z,1.82
2019-02-18T02:41:55.194Z,1.82
2019-02-18T02:42:55.108Z,1.72
2019-02-18T02:43:55.030Z,1.77
2019-02-18T02:44:54.986Z,1.71
2019-02-18T02:45:54.846Z,1.70
2019-02-18T02:46:54.755Z,1.74
2019-02-18T02:47:54.668Z,1.74
2019-02-18T02:48:54.635Z,1.77
2019-02-18T02:49:54.494Z,1.74
2019-02-18T02:50:54.509Z,1.67
2019-02-18T02:51:54.325Z,1.67
2019-02-18T02:52:54.318Z,1.65
2019-02-18T02:53:54.149Z,1.61
2019-02-18T02:54:54.135Z,1.60
2019-02-18T02:55:53.967Z,1.67
2019-02-18T02:56:53.942Z,1.57
2019-02-18T02:57:53.788Z,1.63
2019-02-18T02:58:53.714Z,1.64
2019-02-18T02:59:53.651Z,1.57
2019-02-18T03:00:53.523Z,1.79
2019-02-18T03:01:53.436Z,1.74
2019-02-18T03:02:53.365Z,1.61
2019-02-18T03:03:53.280Z,1.67
2019-02-18T03:04:53.176Z,1.63
2019-02-18T03:05:53.188Z,1.61
2019-02-18T03:06:53.013Z,1.67
2019-02-18T03:07:52.933Z,1.63
2019-02-18T03:08:52.928Z,1.63
2019-02-18T03:09:52.732Z,1.56
2019-02-18T03:10:52.666Z,1.54
2019-02-18T03:11:52.609Z,1.53
2019-02-18T03:12:52.469Z,1.52
2019-02-18T03:13:52.389Z,1.50
2019-02-18T03:14:52.353Z,1.54
2019-02-18T03:15:52.205Z,1.46
2019-02-18T03:16:52.116Z,1.47
2019-02-18T03:17:52.136Z,1.46
2019-02-18T03:18:51.942Z,1.52
2019-02-18T03:19:51.868Z,1.43
2019-02-18T03:20:51.854Z,1.46
2019-02-18T03:21:51.683Z,1.46
2019-02-18T03:22:51.589Z,1.36
2019-02-18T03:23:51.569Z,1.47
2019-02-18T03:24:51.428Z,1.47
2019-02-18T03:25:51.326Z,1.39
2019-02-18T03:26:51.281Z,1.39
2019-02-18T03:27:51.150Z,1.29
2019-02-18T03:28:51.059Z,1.39
2019-02-18T03:29:51.024Z,1.36
2019-02-18T03:30:50.898Z,1.35
2019-02-18T03:31:50.808Z,1.31
2019-02-18T03:32:58.702Z,1.35
2019-02-18T03:33:50.632Z,1.42
2019-02-18T03:34:50.547Z,1.46
2019-02-18T03:35:50.524Z,1.42
2019-02-18T03:36:50.357Z,1.38
2019-02-18T03:37:50.272Z,1.42
2019-02-18T03:38:57.199Z,1.32
2019-02-18T03:39:50.120Z,1.32
2019-02-18T03:40:50.004Z,1.29
2019-02-18T03:41:49.948Z,1.26
2019-02-18T03:42:49.856Z,1.31
2019-02-18T03:43:49.753Z,1.32
2019-02-18T03:44:49.763Z,1.31
2019-02-18T03:45:49.577Z,1.31
2019-02-18T03:46:50.690Z,1.25
2019-02-18T03:47:49.484Z,1.28
2019-02-18T03:48:49.298Z,1.21
2019-02-18T03:49:49.221Z,1.24
2019-02-18T03:50:49.222Z,1.26
2019-02-18T03:51:49.037Z,1.21
2019-02-18T03:52:48.948Z,1.21
2019-02-18T03:53:48.909Z,1.14
2019-02-18T03:54:48.770Z,1.31
2019-02-18T03:55:48.700Z,1.17
2019-02-18T03:56:48.617Z,1.25
2019-02-18T03:57:48.556Z,1.10
2019-02-18T03:58:48.418Z,1.20
2019-02-18T03:59:48.433Z,1.14
2019-02-18T04:00:48.262Z,1.17
2019-02-18T04:01:50.193Z,1.17
2019-02-18T04:02:48.072Z,1.06
2019-02-18T04:03:47.985Z,1.11
2019-02-18T04:04:47.961Z,1.21
2019-02-18T04:05:47.819Z,1.13
2019-02-18T04:06:47.716Z,1.04
2019-02-18T04:07:47.672Z,1.06
2019-02-18T04:08:47.536Z,1.06
2019-02-18T04:09:47.480Z,1.08
2019-02-18T04:10:47.384Z,1.07
2019-02-18T04:11:47.288Z,0.98
2019-02-18T04:12:47.181Z,1.08
2019-02-18T04:13:47.200Z,1.04
2019-02-18T04:14:47.005Z,0.96
2019-02-18T04:15:47.038Z,0.98
2019-02-18T04:16:46.829Z,0.93
2019-02-18T04:17:46.819Z,0.84
2019-02-18T04:18:46.653Z,0.86
2019-02-18T04:19:46.568Z,0.95
2019-02-18T04:20:46.565Z,0.90
2019-02-18T04:21:46.389Z,0.92
2019-02-18T04:22:46.301Z,0.86
2019-02-18T04:23:46.262Z,0.88
2019-02-18T04:24:46.122Z,0.82
2019-02-18T04:25:46.100Z,0.90
2019-02-18T04:26:45.945Z,0.88
2019-02-18T04:27:45.972Z,0.89
2019-02-18T04:28:45.772Z,0.89
2019-02-18T04:29:45.781Z,0.88
2019-02-18T04:30:45.599Z,0.86
2019-02-18T04:31:45.621Z,0.89
2019-02-18T04:32:45.417Z,0.95
2019-02-18T04:33:45.327Z,0.93
2019-02-18T04:34:45.301Z,0.96
2019-02-18T04:35:45.177Z,0.96
2019-02-18T04:36:45.083Z,0.89
2019-02-18T04:37:45.019Z,0.81
2019-02-18T04:38:53.830Z,0.90
2019-02-18T04:39:44.798Z,0.88
2019-02-18T04:40:46.775Z,0.84
2019-02-18T04:41:44.635Z,0.78
2019-02-18T04:42:44.636Z,0.77
2019-02-18T04:43:44.443Z,0.86
2019-02-18T04:44:44.445Z,0.89
2019-02-18T04:45:44.266Z,0.80
2019-02-18T04:46:45.207Z,0.82
2019-02-18T04:47:44.092Z,0.81
2019-02-18T04:48:44.004Z,0.80
2019-02-18T04:49:43.969Z,0.71
2019-02-18T04:50:43.832Z,0.64
2019-02-18T04:51:43.761Z,0.71
2019-02-18T04:52:43.680Z,0.70
2019-02-18T04:53:43.561Z,0.64
2019-02-18T04:54:43.472Z,0.72
2019-02-18T04:55:43.503Z,0.72
2019-02-18T04:56:43.315Z,0.74
2019-02-18T04:57:50.270Z,0.71
2019-02-18T04:58:43.121Z,0.67
2019-02-18T04:59:43.050Z,0.68
2019-02-18T05:00:42.943Z,0.64
2019-02-18T05:01:42.954Z,0.62
2019-02-18T05:02:42.766Z,0.68
2019-02-18T05:03:42.677Z,0.64
2019-02-18T05:04:43.039Z,0.64
2019-02-18T05:05:42.497Z,0.64
2019-02-18T05:06:42.476Z,0.71
2019-02-18T05:07:42.323Z,0.70
2019-02-18T05:08:42.239Z,0.62
2019-02-18T05:09:42.237Z,0.62
2019-02-18T05:10:42.059Z,0.68
2019-02-18T05:11:41.969Z,0.68
2019-02-18T05:12:42.009Z,0.51
2019-02-18T05:13:41.792Z,0.56
2019-02-18T05:14:41.705Z,0.68
2019-02-18T05:15:41.690Z,0.64
2019-02-18T05:16:41.529Z,0.67
2019-02-18T05:17:41.455Z,0.64
2019-02-18T05:18:41.403Z,0.49
2019-02-18T05:19:41.261Z,0.53
2019-02-18T05:20:41.186Z,0.52
2019-02-18T05:21:41.116Z,0.56
2019-02-18T05:22:41.009Z,0.43
2019-02-18T05:23:40.912Z,0.52
2019-02-18T05:24:40.951Z,0.49
2019-02-18T05:25:40.728Z,0.53
2019-02-18T05:26:40.656Z,0.52
2019-02-18T05:27:40.680Z,0.57
2019-02-18T05:28:40.466Z,0.51
2019-02-18T05:29:40.374Z,0.53
2019-02-18T05:30:40.358Z,0.49
2019-02-18T05:31:40.202Z,0.51
2019-02-18T05:32:40.123Z,0.56
2019-02-18T05:33:40.082Z,0.51
2019-02-18T05:34:39.935Z,0.53
2019-02-18T05:35:39.847Z,0.53
2019-02-18T05:36:39.785Z,0.49
2019-02-18T05:37:39.683Z,0.53
2019-02-18T05:38:39.580Z,0.44
2019-02-18T05:39:39.605Z,0.40
2019-02-18T05:40:39.401Z,0.64
2019-02-18T05:41:39.311Z,0.62
2019-02-18T05:42:39.348Z,0.64
2019-02-18T05:43:39.142Z,0.51
2019-02-18T05:44:39.048Z,0.62
2019-02-18T05:45:39.046Z,0.49
2019-02-18T05:46:38.872Z,0.62
2019-02-18T05:47:38.978Z,0.62
2019-02-18T05:48:38.696Z,0.57
2019-02-18T05:49:38.654Z,0.63
2019-02-18T05:50:38.520Z,0.60
2019-02-18T05:51:38.471Z,0.64
2019-02-18T05:52:38.357Z,0.71
2019-02-18T05:53:38.303Z,0.62
2019-02-18T05:54:38.171Z,0.49
2019-02-18T05:55:38.112Z,0.57
2019-02-18T05:56:37.986Z,0.68
2019-02-18T05:57:38.021Z,0.51
2019-02-18T05:58:37.808Z,0.49
2019-02-18T05:59:38.001Z,0.41
2019-02-18T06:00:37.633Z,0.43
2019-02-18T06:01:37.607Z,0.35
2019-02-18T06:02:37.466Z,0.41
2019-02-18T06:03:37.619Z,0.51
2019-02-18T06:04:37.274Z,0.51
2019-02-18T06:05:37.363Z,0.51
2019-02-18T06:06:37.102Z,0.52
2019-02-18T06:07:39.112Z,0.38
2019-02-18T06:08:36.926Z,0.33
2019-02-18T06:09:36.833Z,0.41
2019-02-18T06:10:36.746Z,0.38
2019-02-18T06:11:37.673Z,0.38
2019-02-18T06:12:36.585Z,0.31
2019-02-18T06:13:36.502Z,0.40
2019-02-18T06:14:36.420Z,0.51
2019-02-18T06:15:36.300Z,0.49
2019-02-18T06:16:44.178Z,0.38
2019-02-18T06:17:36.152Z,0.35
2019-02-18T06:18:36.084Z,0.41
2019-02-18T06:19:35.951Z,0.43
2019-02-18T06:20:35.857Z,0.60
2019-02-18T06:21:35.797Z,0.51
2019-02-18T06:22:38.267Z,0.62
2019-02-18T06:23:35.610Z,0.64
2019-02-18T06:24:35.612Z,0.63
2019-02-18T06:25:35.417Z,0.59
2019-02-18T06:26:35.325Z,0.63
2019-02-18T06:27:35.245Z,0.63
2019-02-18T06:28:35.163Z,0.78
2019-02-18T06:29:35.060Z,0.89
2019-02-18T06:30:35.118Z,0.86
2019-02-18T06:31:34.886Z,0.81
2019-02-18T06:32:34.794Z,0.71
2019-02-18T06:33:39.291Z,0.74
2019-02-18T06:34:34.620Z,0.67
2019-02-18T06:35:34.560Z,0.64
2019-02-18T06:36:34.439Z,0.62
2019-02-18T06:37:34.371Z,0.57
2019-02-18T06:38:34.277Z,0.48
2019-02-18T06:39:41.517Z,0.49
2019-02-18T06:40:34.089Z,0.56
2019-02-18T06:41:34.093Z,0.53
2019-02-18T06:42:33.914Z,0.59
2019-02-18T06:43:33.938Z,0.57
2019-02-18T06:44:33.733Z,0.64
2019-02-18T06:45:33.709Z,0.68
2019-02-18T06:46:33.556Z,0.57
2019-02-18T06:47:33.518Z,0.71
2019-02-18T06:48:33.389Z,0.56
2019-02-18T06:49:33.292Z,0.60
2019-02-18T06:50:40.196Z,0.51
2019-02-18T06:51:33.118Z,0.51
2019-02-18T06:52:33.024Z,0.56
2019-02-18T06:53:33.090Z,0.49
2019-02-18T06:54:32.851Z,0.48
2019-02-18T06:55:32.764Z,0.49
2019-02-18T06:56:33.697Z,0.45
2019-02-18T06:57:32.585Z,0.57
2019-02-18T06:58:32.575Z,0.52
2019-02-18T06:59:32.420Z,0.63
2019-02-18T07:00:32.319Z,0.67
2019-02-18T07:01:33.307Z,0.70
2019-02-18T07:02:32.137Z,0.74
2019-02-18T07:03:32.051Z,0.64
2019-02-18T07:04:32.033Z,0.72
2019-02-18T07:05:31.879Z,0.80
2019-02-18T07:06:31.807Z,0.68
2019-02-18T07:07:31.701Z,0.64
2019-02-18T07:08:31.718Z,0.70
2019-02-18T07:09:31.539Z,0.71
2019-02-18T07:10:31.434Z,0.72
2019-02-18T07:11:31.431Z,0.84
2019-02-18T07:12:31.254Z,0.74
2019-02-18T07:13:31.177Z,0.77
2019-02-18T07:14:31.175Z,0.88
2019-02-18T07:15:30.991Z,0.89
2019-02-18T07:16:30.957Z,0.96
2019-02-18T07:17:30.817Z,0.98
2019-02-18T07:18:33.439Z,1.08
2019-02-18T07:19:30.657Z,1.13
2019-02-18T07:20:30.545Z,1.26
2019-02-18T07:21:30.476Z,1.24
2019-02-18T07:22:30.372Z,1.26
2019-02-18T07:23:30.284Z,1.31
2019-02-18T07:24:31.245Z,1.32
2019-02-18T07:25:30.111Z,1.32
2019-02-18T07:26:30.022Z,1.35
2019-02-18T07:27:30.007Z,1.36
2019-02-18T07:28:29.858Z,1.42
2019-02-18T07:29:29.768Z,1.42
2019-02-18T07:30:29.723Z,1.42
2019-02-18T07:31:29.576Z,1.39
2019-02-18T07:32:29.536Z,1.52
2019-02-18T07:33:29.407Z,1.60
2019-02-18T07:34:29.341Z,1.57
2019-02-18T07:35:29.279Z,1.67
2019-02-18T07:36:30.172Z,1.64
2019-02-18T07:37:29.053Z,1.81
2019-02-18T07:38:28.995Z,1.81
2019-02-18T07:39:31.595Z,1.79
2019-02-18T07:40:28.807Z,1.85
2019-02-18T07:41:29.800Z,2.00
2019-02-18T07:42:28.621Z,2.05
2019-02-18T07:43:28.535Z,2.14
2019-02-18T07:44:28.488Z,2.29
2019-02-18T07:45:28.369Z,2.41
2019-02-18T07:46:28.269Z,2.43
2019-02-18T07:47:28.205Z,2.59
2019-02-18T07:48:28.102Z,2.66
2019-02-18T07:49:28.005Z,2.83
2019-02-18T07:50:28.048Z,3.02
2019-02-18T07:51:27.835Z,3.12
2019-02-18T07:52:27.827Z,3.37
2019-02-18T07:53:27.657Z,3.56
2019-02-18T07:54:27.633Z,3.57
2019-02-18T07:55:27.528Z,3.81
2019-02-18T07:56:27.443Z,3.90
2019-02-18T07:57:27.313Z,4.04
2019-02-18T07:58:27.237Z,4.17
2019-02-18T07:59:27.145Z,4.36
2019-02-18T08:00:27.084Z,4.47
2019-02-18T08:01:27.068Z,4.54
2019-02-18T08:02:26.888Z,4.79
2019-02-18T08:03:26.805Z,4.84
2019-02-18T08:04:41.733Z,4.96
2019-02-18T08:05:26.641Z,5.09
2019-02-18T08:06:26.616Z,5.24
2019-02-18T08:07:26.468Z,5.38
2019-02-18T08:08:26.398Z,5.47
2019-02-18T08:09:26.299Z,5.60
2019-02-18T08:10:27.228Z,5.70
2019-02-18T08:11:26.145Z,5.90
2019-02-18T08:12:26.118Z,5.98
2019-02-18T08:13:26.852Z,6.13
2019-02-18T08:14:25.929Z,6.30
2019-02-18T08:15:25.797Z,6.51
2019-02-18T08:16:25.730Z,6.55
2019-02-18T08:17:26.669Z,6.75
2019-02-18T08:18:25.551Z,6.82
2019-02-18T08:19:25.563Z,6.97
2019-02-18T08:20:25.460Z,7.15
2019-02-18T08:21:25.314Z,7.30
2019-02-18T08:22:26.291Z,7.44
2019-02-18T08:23:25.137Z,7.60
2019-02-18T08:24:25.075Z,7.84
2019-02-18T08:25:24.974Z,7.94
2019-02-18T08:26:24.906Z,8.07
2019-02-18T08:27:24.892Z,8.14
2019-02-18T08:28:24.732Z,8.32
2019-02-18T08:29:24.666Z,8.42
2019-02-18T08:30:24.608Z,8.50
2019-02-18T08:31:24.495Z,8.65
2019-02-18T08:32:24.402Z,8.80
2019-02-18T08:33:24.420Z,9.01
2019-02-18T08:34:24.238Z,9.17
2019-02-18T08:35:24.166Z,9.26
2019-02-18T08:36:24.167Z,9.35
2019-02-18T08:37:23.994Z,9.44
2019-02-18T08:38:23.998Z,9.55
2019-02-18T08:39:23.834Z,9.71
2019-02-18T08:40:23.753Z,9.71
2019-02-18T08:41:24.711Z,9.80
2019-02-18T08:42:23.590Z,9.96
2019-02-18T08:43:23.509Z,10.14
2019-02-18T08:44:23.439Z,10.29
2019-02-18T08:45:23.349Z,10.42
2019-02-18T08:46:27.716Z,10.58
2019-02-18T08:47:23.204Z,10.72
2019-02-18T08:48:24.135Z,10.88
2019-02-18T08:49:23.025Z,10.95
2019-02-18T08:50:23.002Z,11.12
2019-02-18T08:51:22.878Z,11.20
2019-02-18T08:52:22.812Z,11.35
2019-02-18T08:53:22.704Z,11.31
2019-02-18T08:54:22.629Z,11.53
2019-02-18T08:55:22.542Z,11.45
2019-02-18T08:56:22.490Z,11.62
2019-02-18T08:57:22.390Z,11.64
2019-02-18T08:58:22.303Z,11.82
2019-02-18T08:59:22.223Z,11.96
2019-02-18T09:00:23.176Z,11.98
2019-02-18T09:01:22.078Z,11.97
2019-02-18T09:02:26.239Z,12.18
2019-02-18T09:03:21.911Z,12.15
2019-02-18T09:04:21.822Z,12.30
2019-02-18T09:05:21.828Z,12.29
2019-02-18T09:06:21.680Z,12.43
2019-02-18T09:07:21.601Z,12.49
2019-02-18T09:08:21.503Z,12.43
2019-02-18T09:09:21.428Z,12.49
2019-02-18T09:10:21.351Z,12.71
2019-02-18T09:11:21.266Z,12.70
2019-02-18T09:12:21.323Z,12.73
2019-02-18T09:13:21.113Z,12.81
2019-02-18T09:14:21.025Z,12.85
2019-02-18T09:15:21.025Z,12.91
2019-02-18T09:16:20.864Z,13.06
2019-02-18T09:17:20.866Z,13.12
2019-02-18T09:18:20.708Z,13.19
2019-02-18T09:19:21.668Z,13.24
2019-02-18T09:20:20.549Z,13.38
2019-02-18T09:21:20.469Z,13.44
2019-02-18T09:22:20.492Z,13.41
2019-02-18T09:23:20.317Z,13.50
2019-02-18T09:24:20.245Z,13.48
2019-02-18T09:25:28.875Z,13.44
2019-02-18T09:26:20.068Z,13.61
2019-02-18T09:27:20.009Z,13.80
2019-02-18T09:28:19.917Z,13.91
2019-02-18T09:29:19.905Z,13.98
2019-02-18T09:30:19.749Z,14.01
2019-02-18T09:31:19.669Z,14.16
2019-02-18T09:32:19.870Z,14.36
2019-02-18T09:33:19.716Z,14.42
2019-02-18T09:34:19.430Z,14.23
2019-02-18T09:35:19.356Z,14.12
2019-02-18T09:36:21.563Z,14.20
2019-02-18T09:37:19.197Z,14.36
2019-02-18T09:38:25.038Z,14.44
2019-02-18T09:39:30.006Z,14.46
2019-02-18T09:40:18.960Z,14.59
2019-02-18T09:41:18.881Z,14.64
2019-02-18T09:42:18.858Z,14.69
2019-02-18T09:43:18.732Z,14.66
2019-02-18T09:44:18.670Z,14.75
2019-02-18T09:45:18.560Z,14.69
2019-02-18T09:46:18.479Z,14.74
2019-02-18T09:47:18.480Z,14.80
2019-02-18T09:48:18.340Z,14.94
2019-02-18T09:49:18.241Z,15.13
2019-02-18T09:50:18.195Z,15.31
2019-02-18T09:51:18.086Z,15.25
2019-02-18T09:52:18.174Z,15.25
2019-02-18T09:53:17.940Z,15.09
2019-02-18T09:54:17.915Z,15.38
2019-02-18T09:55:17.767Z,15.11
2019-02-18T09:56:17.685Z,15.25
2019-02-18T09:57:17.629Z,15.33
2019-02-18T09:58:17.544Z,15.40
2019-02-18T09:59:17.460Z,15.38
2019-02-18T10:00:19.641Z,15.46
2019-02-18T10:01:18.564Z,15.55
2019-02-18T10:02:17.254Z,15.52
2019-02-18T10:03:17.149Z,15.53
2019-02-18T10:04:17.169Z,15.55
2019-02-18T10:05:16.977Z,15.60
2019-02-18T10:06:16.897Z,15.68
2019-02-18T10:07:16.886Z,15.81
2019-02-18T10:08:16.755Z,15.80
2019-02-18T10:09:16.662Z,16.06
2019-02-18T10:10:16.722Z,15.96
2019-02-18T10:11:16.504Z,15.77
2019-02-18T10:12:18.627Z,15.77
2019-02-18T10:13:16.363Z,15.96
2019-02-18T10:14:16.520Z,15.86
2019-02-18T10:15:16.190Z,16.08
2019-02-18T10:16:17.352Z,16.03
2019-02-18T10:17:16.030Z,16.07
2019-02-18T10:18:16.122Z,16.06
2019-02-18T10:19:15.876Z,16.08
2019-02-18T10:20:15.912Z,16.14
2019-02-18T10:21:15.717Z,16.06
2019-02-18T10:22:15.640Z,15.93
2019-02-18T10:23:15.716Z,15.93
2019-02-18T10:24:15.498Z,16.17
2019-02-18T10:25:15.407Z,16.18
2019-02-18T10:26:15.577Z,16.08
2019-02-18T10:27:15.247Z,15.96
2019-02-18T10:28:15.168Z,15.96
2019-02-18T10:29:15.219Z,16.07
2019-02-18T10:30:15.014Z,16.18
2019-02-18T10:31:14.940Z,16.14
2019-02-18T10:32:15.001Z,16.36
2019-02-18T10:33:14.777Z,16.48
2019-02-18T10:34:14.736Z,16.59
2019-02-18T10:35:14.816Z,16.63
2019-02-18T10:36:14.539Z,16.69
2019-02-18T10:37:14.629Z,16.95
2019-02-18T10:38:14.385Z,16.88
2019-02-18T10:39:15.626Z,17.09
2019-02-18T10:40:14.231Z,17.14
2019-02-18T10:41:14.156Z,17.09
2019-02-18T10:42:14.256Z,17.07
2019-02-18T10:43:13.994Z,17.03
2019-02-18T10:44:13.930Z,17.00
2019-02-18T10:45:14.071Z,17.03
2019-02-18T10:46:13.766Z,17.15
2019-02-18T10:47:13.685Z,17.05
2019-02-18T10:48:13.682Z,17.06
2019-02-18T10:49:19.888Z,17.07
2019-02-18T10:50:13.447Z,17.32
2019-02-18T10:51:13.498Z,17.17
2019-02-18T10:52:13.292Z,16.88
2019-02-18T10:53:21.908Z,17.06
2019-02-18T10:54:13.258Z,17.03
2019-02-18T10:55:14.145Z,17.02
2019-02-18T10:56:12.993Z,16.92
2019-02-18T10:57:13.130Z,17.03
2019-02-18T10:58:12.827Z,17.05
2019-02-18T10:59:12.940Z,17.15
2019-02-18T11:00:12.680Z,17.39
2019-02-18T11:01:12.588Z,17.49
2019-02-18T11:02:12.793Z,17.54
2019-02-18T11:03:12.440Z,17.47
2019-02-18T11:04:12.354Z,17.58
2019-02-18T11:05:13.049Z,17.58
2019-02-18T11:06:12.409Z,17.63
2019-02-18T11:07:12.327Z,17.51
2019-02-18T11:08:12.044Z,17.62
2019-02-18T11:09:12.243Z,17.45
2019-02-18T11:10:11.913Z,17.54
2019-02-18T11:11:17.027Z,17.63
2019-02-18T11:12:11.877Z,17.73
2019-02-18T11:13:11.654Z,17.71
2019-02-18T11:14:11.576Z,17.79
2019-02-18T11:15:11.521Z,17.79
2019-02-18T11:16:11.423Z,17.86
2019-02-18T11:17:11.342Z,17.91
2019-02-18T11:18:12.352Z,17.80
2019-02-18T11:19:11.191Z,17.73
2019-02-18T11:20:11.167Z,17.60
2019-02-18T11:21:11.033Z,17.68
2019-02-18T11:22:10.957Z,17.68
2019-02-18T11:23:10.952Z,17.68
2019-02-18T11:24:10.801Z,17.70
2019-02-18T11:25:10.748Z,17.81
2019-02-18T11:26:10.668Z,17.84
2019-02-18T11:27:10.573Z,17.70
2019-02-18T11:28:10.487Z,17.66
2019-02-18T11:29:10.485Z,17.60
2019-02-18T11:30:10.331Z,17.62
2019-02-18T11:31:10.272Z,17.80
2019-02-18T11:32:10.199Z,17.84
2019-02-18T11:33:10.099Z,17.89
2019-02-18T11:34:10.108Z,17.89
2019-02-18T11:35:09.947Z,17.94
2019-02-18T11:36:09.880Z,17.91
2019-02-18T11:37:09.794Z,17.99
2019-02-18T11:38:09.710Z,18.11
2019-02-18T11:39:09.637Z,18.19
2019-02-18T11:40:09.641Z,18.23
2019-02-18T11:41:09.493Z,18.11
2019-02-18T11:42:09.399Z,18.13
2019-02-18T11:43:09.327Z,18.04
2019-02-18T11:44:09.242Z,18.14
2019-02-18T11:45:09.170Z,18.29
2019-02-18T11:46:11.742Z,18.23
2019-02-18T11:47:09.011Z,18.10
2019-02-18T11:48:08.975Z,18.11
2019-02-18T11:49:08.858Z,18.23
2019-02-18T11:50:08.792Z,18.26
2019-02-18T11:51:08.713Z,18.13
2019-02-18T11:52:08.622Z,17.99
2019-02-18T11:53:08.601Z,17.81
2019-02-18T11:54:08.466Z,17.95
2019-02-18T11:55:08.389Z,17.99
2019-02-18T11:56:08.328Z,18.13
2019-02-18T11:57:08.233Z,18.02
2019-02-18T11:58:08.154Z,18.13
2019-02-18T11:59:08.133Z,18.20
2019-02-18T12:00:08.009Z,18.20
2019-02-18T12:01:07.930Z,18.29
2019-02-18T12:02:07.948Z,18.32
2019-02-18T12:03:12.306Z,18.53
2019-02-18T12:04:07.754Z,18.53
2019-02-18T12:05:07.631Z,18.54
2019-02-18T12:06:07.595Z,18.39
2019-02-18T12:07:07.449Z,18.36
2019-02-18T12:08:07.507Z,18.47
2019-02-18T12:09:07.292Z,18.60
2019-02-18T12:10:07.286Z,18.60
2019-02-18T12:11:07.160Z,18.60
2019-02-18T12:12:07.092Z,18.44
2019-02-18T12:13:06.982Z,18.53
2019-02-18T12:14:07.005Z,18.46
2019-02-18T12:15:06.829Z,18.62
2019-02-18T12:16:06.763Z,18.68
2019-02-18T12:17:06.721Z,18.64
2019-02-18T12:18:06.595Z,18.65
2019-02-18T12:19:06.515Z,18.86
2019-02-18T12:20:06.535Z,18.84
2019-02-18T12:21:06.392Z,18.79
2019-02-18T12:22:06.283Z,18.78
2019-02-18T12:23:06.203Z,18.86
2019-02-18T12:24:06.154Z,18.82
2019-02-18T12:25:06.044Z,18.78
2019-02-18T12:26:05.972Z,18.90
2019-02-18T12:27:05.914Z,18.87
2019-02-18T12:28:20.822Z,18.74
2019-02-18T12:29:05.739Z,18.83
2019-02-18T12:30:05.661Z,18.83
2019-02-18T12:31:05.693Z,18.86
2019-02-18T12:32:05.519Z,18.84
2019-02-18T12:33:05.425Z,18.82
2019-02-18T12:34:05.347Z,18.89
2019-02-18T12:35:05.308Z,18.83
2019-02-18T12:36:05.192Z,18.82
2019-02-18T12:37:05.129Z,19.01
2019-02-18T12:38:05.044Z,19.02
2019-02-18T12:39:05.027Z,19.05
2019-02-18T12:40:04.885Z,19.12
2019-02-18T12:41:11.801Z,19.10
2019-02-18T12:42:04.742Z,19.07
2019-02-18T12:43:04.647Z,18.97
2019-02-18T12:44:04.659Z,19.09
2019-02-18T12:45:04.492Z,19.06
2019-02-18T12:46:04.413Z,19.02
2019-02-18T12:47:09.826Z,19.10
2019-02-18T12:48:04.258Z,18.90
2019-02-18T12:49:04.185Z,19.05
2019-02-18T12:50:04.107Z,19.01
2019-02-18T12:51:04.110Z,19.09
2019-02-18T12:52:03.958Z,19.21
2019-02-18T12:53:03.896Z,19.25
2019-02-18T12:54:05.314Z,19.10
2019-02-18T12:55:03.883Z,19.07
2019-02-18T12:56:03.648Z,19.06
2019-02-18T12:57:10.816Z,19.12
2019-02-18T12:58:03.478Z,19.25
2019-02-18T12:59:04.271Z,18.99
2019-02-18T13:00:03.423Z,18.99
2019-02-18T13:01:03.336Z,19.15
2019-02-18T13:02:03.177Z,19.23
2019-02-18T13:03:03.176Z,19.24
2019-02-18T13:04:03.014Z,19.31
2019-02-18T13:05:02.970Z,19.32
2019-02-18T13:06:02.854Z,19.50
2019-02-18T13:07:04.813Z,19.53
2019-02-18T13:08:02.933Z,19.50